createdAt,value
2019-02-07T00:00:27.880Z,29.8
2019-02-07T00:01:22.005Z,29.7
2019-02-07T00:02:09.367Z,29.7
2019-02-07T00:03:00.055Z,29.6
2019-02-07T00:03:49.359Z,29.6
2019-02-07T00:04:39.676Z,29.4
2019-02-07T00:05:29.685Z,29.1
2019-02-07T00:06:19.359Z,30.1
2019-02-07T00:07:11.609Z,30.8
2019-02-07T00:08:00.721Z,31.4
2019-02-07T00:08:49.382Z,31.9
2019-02-07T00:09:40.142Z,32.3
2019-02-07T00:10:31.115Z,32.6
2019-02-07T00:11:20.277Z,33
2019-02-07T00:12:10.497Z,33.3
2019-02-07T00:13:00.049Z,33.5
2019-02-07T00:13:49.879Z,33.7
2019-02-07T00:14:49.167Z,33.9
2019-02-07T00:15:29.179Z,34.1
2019-02-07T00:16:22.656Z,34.2
2019-02-07T00:17:10.682Z,34.3
2019-02-07T00:17:59.384Z,33.8
2019-02-07T00:18:49.769Z,33.5
2019-02-07T00:19:42.742Z,33.1
2019-02-07T00:20:29.352Z,32.5
2019-02-07T00:21:21.289Z,31.9
2019-02-07T00:22:09.953Z,31.4
2019-02-07T00:23:01.661Z,30.9
2019-02-07T00:23:51.174Z,30.4
2019-02-07T00:24:52.402Z,30.2
2019-02-07T00:25:33.448Z,29.9
2019-02-07T00:26:20.542Z,29.8
2019-02-07T00:27:11.468Z,29.9
2019-02-07T00:28:01.247Z,29.8
2019-02-07T00:28:53.708Z,29.8
2019-02-07T00:29:42.103Z,29.7
2019-02-07T00:30:30.873Z,29.6
2019-02-07T00:31:21.598Z,29.5
2019-02-07T00:32:11.731Z,29.1
2019-02-07T00:32:59.608Z,29.7
2019-02-07T00:33:52.153Z,30.5
2019-02-07T00:34:44.384Z,31.1
2019-02-07T00:35:30.875Z,31.6
2019-02-07T00:36:21.498Z,32
2019-02-07T00:37:11.813Z,32.4
2019-02-07T00:38:03.351Z,32.7
2019-02-07T00:38:51.345Z,33
2019-02-07T00:39:41.990Z,33.3
2019-02-07T00:40:31.215Z,33.5
2019-02-07T00:41:22.372Z,33.7
2019-02-07T00:42:11.957Z,33.9
2019-02-07T00:43:02.782Z,34
2019-02-07T00:43:54.520Z,34.2
2019-02-07T00:44:57.050Z,34.3
2019-02-07T00:45:32.366Z,33.7
2019-02-07T00:46:21.449Z,33.5
2019-02-07T00:47:15.241Z,33.1
2019-02-07T00:48:02.362Z,32.5
2019-02-07T00:48:53.007Z,32
2019-02-07T00:49:42.664Z,31.4
2019-02-07T00:50:36.742Z,30.9
2019-02-07T00:51:23.737Z,30.5
2019-02-07T00:52:13.252Z,30.3
2019-02-07T00:53:05.349Z,30
2019-02-07T00:53:53.619Z,29.8
2019-02-07T00:54:43.413Z,29.8
2019-02-07T00:55:32.834Z,29.8
2019-02-07T00:56:25.997Z,29.7
2019-02-07T00:57:13.917Z,29.6
2019-02-07T00:58:03.659Z,29.6
2019-02-07T00:58:52.606Z,29.5
2019-02-07T00:59:43.392Z,29.1
2019-02-07T01:00:33.609Z,29.6
2019-02-07T01:01:24.462Z,30.4
2019-02-07T01:02:15.059Z,31
2019-02-07T01:03:04.218Z,31.5
2019-02-07T01:03:53.389Z,31.9
2019-02-07T01:04:43.864Z,32.3
2019-02-07T01:05:36.603Z,32.6
2019-02-07T01:06:23.833Z,32.4
2019-02-07T01:07:13.758Z,31.5
2019-02-07T01:08:02.901Z,29.8
2019-02-07T01:08:54.403Z,28.6
2019-02-07T01:09:43.050Z,27.6
2019-02-07T01:10:33.856Z,26.3
2019-02-07T01:11:24.575Z,24.5
2019-02-07T01:12:13.470Z,23.4
2019-02-07T01:13:04.887Z,23.8
2019-02-07T01:13:53.736Z,24.6
2019-02-07T01:14:47.734Z,26.4
2019-02-07T01:15:34.322Z,28.3
2019-02-07T01:16:24.389Z,29.4
2019-02-07T01:17:13.978Z,30.4
2019-02-07T01:18:04.697Z,31.2
2019-02-07T01:18:55.064Z,31.8
2019-02-07T01:19:44.590Z,32.3
2019-02-07T01:20:36.572Z,32.7
2019-02-07T01:21:23.750Z,33.1
2019-02-07T01:22:15.056Z,33.4
2019-02-07T01:23:05.204Z,33.6
2019-02-07T01:23:56.959Z,33.8
2019-02-07T01:24:44.377Z,34.1
2019-02-07T01:25:34.642Z,34.3
2019-02-07T01:26:25.618Z,34.4
2019-02-07T01:27:15.377Z,34.3
2019-02-07T01:28:05.160Z,33.9
2019-02-07T01:28:54.667Z,33.6
2019-02-07T01:29:48.044Z,33.1
2019-02-07T01:30:35.644Z,32.5
2019-02-07T01:31:24.829Z,31.9
2019-02-07T01:32:15.517Z,31.4
2019-02-07T01:33:06.307Z,30.8
2019-02-07T01:33:55.859Z,30.4
2019-02-07T01:34:44.564Z,30.2
2019-02-07T01:35:35.547Z,29.9
2019-02-07T01:36:25.281Z,29.8
2019-02-07T01:37:14.974Z,29.8
2019-02-07T01:38:05.931Z,29.8
2019-02-07T01:38:58.579Z,29.7
2019-02-07T01:39:46.844Z,29.6
2019-02-07T01:40:34.734Z,29.6
2019-02-07T01:41:25.829Z,29.4
2019-02-07T01:42:15.081Z,29.2
2019-02-07T01:43:06.171Z,30.2
2019-02-07T01:43:55.533Z,30.9
2019-02-07T01:44:48.160Z,31.4
2019-02-07T01:45:36.368Z,31.9
2019-02-07T01:46:27.209Z,32.3
2019-02-07T01:47:16.571Z,32.7
2019-02-07T01:48:09.990Z,32.9
2019-02-07T01:48:55.563Z,33.3
2019-02-07T01:49:46.357Z,33.5
2019-02-07T01:50:36.410Z,33.7
2019-02-07T01:51:25.973Z,33.9
2019-02-07T01:52:17.780Z,34.1
2019-02-07T01:53:06.900Z,34.2
2019-02-07T01:53:58.890Z,34.4
2019-02-07T01:54:47.237Z,34.1
2019-02-07T01:55:37.607Z,33.8
2019-02-07T01:56:27.850Z,33.4
2019-02-07T01:57:20.425Z,32.9
2019-02-07T01:58:07.376Z,32.4
2019-02-07T01:58:57.628Z,31.9
2019-02-07T01:59:46.668Z,31.3
2019-02-07T02:00:37.987Z,30.9
2019-02-07T02:01:27.162Z,30.6
2019-02-07T02:02:17.762Z,30.3
2019-02-07T02:03:09.825Z,30.1
2019-02-07T02:03:58.202Z,29.9
2019-02-07T02:04:48.252Z,29.9
2019-02-07T02:05:38.882Z,29.9
2019-02-07T02:06:30.450Z,29.8
2019-02-07T02:07:17.885Z,29.8
2019-02-07T02:08:07.754Z,29.7
2019-02-07T02:08:58.647Z,29.3
2019-02-07T02:09:48.068Z,29.5
2019-02-07T02:10:37.608Z,30.4
2019-02-07T02:11:26.848Z,31
2019-02-07T02:12:20.296Z,31.5
2019-02-07T02:13:09.187Z,32
2019-02-07T02:13:58.309Z,32.4
2019-02-07T02:14:47.426Z,32.7
2019-02-07T02:15:41.269Z,33
2019-02-07T02:16:31.192Z,33.3
2019-02-07T02:17:18.577Z,33.5
2019-02-07T02:18:09.190Z,33.8
2019-02-07T02:18:58.411Z,33.9
2019-02-07T02:19:48.776Z,34.1
2019-02-07T02:20:38.775Z,34.3
2019-02-07T02:21:31.663Z,34.4
2019-02-07T02:22:19.423Z,33.9
2019-02-07T02:23:09.025Z,33.8
2019-02-07T02:23:59.076Z,33.4
2019-02-07T02:24:54.832Z,32.9
2019-02-07T02:25:40.176Z,32.3
2019-02-07T02:26:29.783Z,31.7
2019-02-07T02:27:20.393Z,31.3
2019-02-07T02:28:10.183Z,30.9
2019-02-07T02:29:00.518Z,30.6
2019-02-07T02:29:50.523Z,30.4
2019-02-07T02:30:43.063Z,30.2
2019-02-07T02:31:28.840Z,30.2
2019-02-07T02:32:19.756Z,30.1
2019-02-07T02:33:10.218Z,30
2019-02-07T02:34:01.825Z,29.9
2019-02-07T02:34:50.110Z,29.9
2019-02-07T02:35:40.096Z,29.8
2019-02-07T02:36:29.953Z,29.1
2019-02-07T02:37:19.975Z,29.9
2019-02-07T02:38:08.452Z,30.7
2019-02-07T02:38:59.859Z,31.2
2019-02-07T02:39:52.091Z,31.7
2019-02-07T02:40:40.055Z,32.1
2019-02-07T02:41:30.637Z,32.4
2019-02-07T02:42:20.097Z,32.8
2019-02-07T02:43:09.907Z,33.1
2019-02-07T02:44:00.447Z,33.3
2019-02-07T02:44:51.361Z,33.6
2019-02-07T02:45:47.862Z,33.8
2019-02-07T02:46:30.170Z,33.9
2019-02-07T02:47:20.160Z,34.1
2019-02-07T02:48:11.070Z,34.3
2019-02-07T02:49:03.072Z,34.4
2019-02-07T02:49:51.389Z,33.9
2019-02-07T02:50:40.801Z,33.7
2019-02-07T02:51:30.989Z,33.3
2019-02-07T02:52:20.810Z,32.8
2019-02-07T02:53:10.636Z,32.3
2019-02-07T02:54:01.986Z,31.6
2019-02-07T02:54:54.037Z,31.3
2019-02-07T02:55:41.949Z,30.9
2019-02-07T02:56:31.362Z,30.6
2019-02-07T02:57:21.777Z,30.4
2019-02-07T02:58:15.080Z,30.3
2019-02-07T02:59:00.230Z,30.1
2019-02-07T02:59:51.652Z,30.1
2019-02-07T03:00:41.191Z,30
2019-02-07T03:01:31.963Z,29.9
2019-02-07T03:02:20.639Z,29.8
2019-02-07T03:03:11.751Z,29.8
2019-02-07T03:04:02.898Z,29.3
2019-02-07T03:04:52.675Z,29.8
2019-02-07T03:08:24.502Z,32
2019-02-07T03:09:14.251Z,32.5
2019-02-07T03:10:04.041Z,32.8
2019-02-07T03:10:55.058Z,33.1
2019-02-07T03:11:44.053Z,33.3
2019-02-07T03:12:33.794Z,33.5
2019-02-07T03:13:23.695Z,33.1
2019-02-07T03:14:17.410Z,32.1
2019-02-07T03:15:05.044Z,30.1
2019-02-07T03:15:59.310Z,29
2019-02-07T03:16:44.670Z,27.7
2019-02-07T03:17:34.823Z,26.1
2019-02-07T03:18:24.465Z,24.6
2019-02-07T03:19:14.635Z,24.8
2019-02-07T03:20:07.502Z,25.3
2019-02-07T03:20:54.610Z,27.2
2019-02-07T03:21:44.387Z,28.6
2019-02-07T03:22:34.728Z,29.8
2019-02-07T03:23:28.159Z,30.8
2019-02-07T03:24:16.032Z,31.6
2019-02-07T03:25:05.259Z,32.1
2019-02-07T03:25:55.377Z,32.5
2019-02-07T03:26:45.879Z,32.9
2019-02-07T03:27:35.099Z,33.2
2019-02-07T03:28:26.074Z,33.5
2019-02-07T03:29:17.464Z,33.8
2019-02-07T03:30:06.440Z,34
2019-02-07T03:30:56.170Z,34.2
2019-02-07T03:31:45.978Z,34.4
2019-02-07T03:32:39.212Z,34.5
2019-02-07T03:33:25.620Z,33.9
2019-02-07T03:34:14.649Z,33.7
2019-02-07T03:35:06.222Z,33.3
2019-02-07T03:35:56.229Z,32.7
2019-02-07T03:36:45.124Z,32.1
2019-02-07T03:37:36.821Z,31.6
2019-02-07T03:38:28.927Z,31
2019-02-07T03:39:16.526Z,30.6
2019-02-07T03:40:06.041Z,30.4
2019-02-07T03:40:56.247Z,30.2
2019-02-07T03:41:47.519Z,30
2019-02-07T03:42:35.586Z,30
2019-02-07T03:43:27.001Z,29.9
2019-02-07T03:44:17.074Z,29.9
2019-02-07T03:45:05.789Z,29.8
2019-02-07T03:46:10.684Z,29.8
2019-02-07T03:46:45.674Z,29.1
2019-02-07T03:47:39.828Z,29.6
2019-02-07T03:48:26.581Z,30.6
2019-02-07T03:49:16.373Z,31.1
2019-02-07T03:50:05.979Z,31.7
2019-02-07T03:50:59.403Z,32.1
2019-02-07T03:51:47.254Z,32.5
2019-02-07T03:52:35.760Z,32.8
2019-02-07T03:53:27.780Z,33.1
2019-02-07T03:54:16.974Z,33.4
2019-02-07T03:55:07.357Z,33.6
2019-02-07T03:55:57.302Z,33.8
2019-02-07T03:56:49.660Z,34
2019-02-07T03:57:36.407Z,34.2
2019-02-07T03:58:28.278Z,34.3
2019-02-07T03:59:17.510Z,34.4
2019-02-07T04:00:10.399Z,33.9
2019-02-07T04:00:57.130Z,33.7
2019-02-07T04:01:48.603Z,33.3
2019-02-07T04:02:41.642Z,32.8
2019-02-07T04:03:28.670Z,32.2
2019-02-07T04:04:18.210Z,31.6
2019-02-07T04:05:08.350Z,31.2
2019-02-07T04:06:01.194Z,30.9
2019-02-07T04:06:47.792Z,30.6
2019-02-07T04:07:38.487Z,30.4
2019-02-07T04:08:27.954Z,30.3
2019-02-07T04:09:20.114Z,30.2
2019-02-07T04:10:08.032Z,30.1
2019-02-07T04:10:58.073Z,30.1
2019-02-07T04:11:49.156Z,29.9
2019-02-07T04:12:38.969Z,29.8
2019-02-07T04:13:28.100Z,29.6
2019-02-07T04:14:18.673Z,29.4
2019-02-07T04:15:11.060Z,30.4
2019-02-07T04:15:58.915Z,31
2019-02-07T04:16:49.174Z,31.5
2019-02-07T04:17:38.869Z,31.9
2019-02-07T04:18:30.992Z,32.4
2019-02-07T04:19:19.771Z,32.7
2019-02-07T04:20:10.254Z,33
2019-02-07T04:20:59.941Z,33.3
2019-02-07T04:21:49.934Z,33.5
2019-02-07T04:22:38.939Z,33.8
2019-02-07T04:23:29.507Z,33.9
2019-02-07T04:24:25.185Z,34.1
2019-02-07T04:25:27.098Z,34.3
2019-02-07T04:25:59.231Z,34.4
2019-02-07T04:26:49.457Z,33.9
2019-02-07T04:27:41.218Z,33.8
2019-02-07T04:28:29.548Z,33.3
2019-02-07T04:29:20.545Z,32.8
2019-02-07T04:30:10.886Z,32.3
2019-02-07T04:31:00.767Z,31.7
2019-02-07T04:31:49.928Z,31.2
2019-02-07T04:32:40.016Z,30.9
2019-02-07T04:33:32.701Z,30.7
2019-02-07T04:34:19.516Z,30.4
2019-02-07T04:35:10.504Z,30.3
2019-02-07T04:36:00.485Z,30.2
2019-02-07T04:36:51.850Z,30.1
2019-02-07T04:37:40.688Z,30
2019-02-07T04:38:30.850Z,29.9
2019-02-07T04:39:19.897Z,29.8
2019-02-07T04:40:17.055Z,29.7
2019-02-07T04:41:01.025Z,29.4
2019-02-07T04:41:50.795Z,30.3
2019-02-07T04:42:43.502Z,30.9
2019-02-07T04:43:30.478Z,31.4
2019-02-07T04:44:20.789Z,31.9
2019-02-07T04:45:11.210Z,32.3
2019-02-07T04:46:03.932Z,32.6
2019-02-07T04:46:51.427Z,33
2019-02-07T04:47:40.651Z,33.3
2019-02-07T04:48:31.577Z,33.4
2019-02-07T04:49:21.087Z,33.7
2019-02-07T04:50:11.150Z,33.9
2019-02-07T04:51:01.104Z,34.1
2019-02-07T04:51:53.484Z,34.3
2019-02-07T04:52:41.269Z,34.4
2019-02-07T04:53:31.330Z,34.1
2019-02-07T04:54:20.639Z,33.9
2019-02-07T04:55:14.172Z,33.5
2019-02-07T04:56:02.102Z,33
2019-02-07T04:56:52.124Z,32.5
2019-02-07T04:57:41.992Z,31.9
2019-02-07T04:58:31.925Z,31.4
2019-02-07T04:59:21.033Z,31.1
2019-02-07T05:00:15.092Z,30.8
2019-02-07T05:01:04.381Z,30.6
2019-02-07T05:01:52.234Z,30.4
2019-02-07T05:02:41.763Z,30.2
2019-02-07T05:03:33.009Z,30.2
2019-02-07T05:04:24.386Z,30.1
2019-02-07T05:05:12.234Z,30
2019-02-07T05:06:02.516Z,29.9
2019-02-07T05:06:52.948Z,29.8
2019-02-07T05:07:42.370Z,29.3
2019-02-07T05:08:33.343Z,29.8
2019-02-07T05:09:22.113Z,30.7
2019-02-07T05:10:15.320Z,31.2
2019-02-07T05:11:01.139Z,31.7
2019-02-07T05:11:51.754Z,32.1
2019-02-07T05:12:42.095Z,32.4
2019-02-07T05:13:33.229Z,32.8
2019-02-07T05:14:22.348Z,33.1
2019-02-07T05:15:12.812Z,33.4
2019-02-07T05:16:04.508Z,33.6
2019-02-07T05:16:53.990Z,33.8
2019-02-07T05:17:43.866Z,34
2019-02-07T05:18:33.427Z,34.1
2019-02-07T05:19:26.040Z,34.3
2019-02-07T05:20:12.980Z,33.8
2019-02-07T05:21:02.380Z,32.9
2019-02-07T05:21:53.584Z,31
2019-02-07T05:22:43.142Z,29.6
2019-02-07T05:23:32.851Z,28.4
2019-02-07T05:24:22.747Z,26.6
2019-02-07T05:25:14.690Z,25.4
2019-02-07T05:26:03.643Z,25.6
2019-02-07T05:26:54.022Z,26.4
2019-02-07T05:27:45.401Z,28.2
2019-02-07T05:28:36.804Z,29.6
2019-02-07T05:29:24.123Z,30.7
2019-02-07T05:30:14.725Z,31.4
2019-02-07T05:31:04.202Z,32.1
2019-02-07T05:31:53.794Z,32.5
2019-02-07T05:32:45.567Z,32.9
2019-02-07T05:33:34.148Z,33.3
2019-02-07T05:34:26.845Z,33.6
2019-02-07T05:35:14.266Z,33.9
2019-02-07T05:36:04.619Z,34.1
2019-02-07T05:36:54.115Z,34.3
2019-02-07T05:37:49.623Z,34.4
2019-02-07T05:38:35.049Z,34.1
2019-02-07T05:39:23.859Z,33.9
2019-02-07T05:40:14.659Z,33.6
2019-02-07T05:41:04.899Z,33
2019-02-07T05:41:55.247Z,32.5
2019-02-07T05:42:44.499Z,31.9
2019-02-07T05:43:37.081Z,31.3
2019-02-07T05:44:25.229Z,30.9
2019-02-07T05:45:15.331Z,30.6
2019-02-07T05:46:05.253Z,30.4
2019-02-07T05:47:04.336Z,30.2
2019-02-07T05:47:45.161Z,30.1
2019-02-07T05:48:35.868Z,30.1
2019-02-07T05:49:24.677Z,29.9
2019-02-07T05:50:15.514Z,29.9
2019-02-07T05:51:05.615Z,29.8
2019-02-07T05:51:55.489Z,29.8
2019-02-07T05:52:47.930Z,29.6
2019-02-07T05:53:35.237Z,29.6
2019-02-07T05:54:26.206Z,29.4
2019-02-07T05:55:15.133Z,28.9
2019-02-07T05:56:07.048Z,29.4
2019-02-07T05:56:54.755Z,30.4
2019-02-07T05:57:45.941Z,31
2019-02-07T05:58:36.235Z,31.5
2019-02-07T05:59:25.904Z,32
2019-02-07T06:00:15.797Z,32.4
2019-02-07T06:01:06.025Z,32.7
2019-02-07T06:01:59.200Z,33
2019-02-07T06:02:46.991Z,33.3
2019-02-07T06:03:35.428Z,33.5
2019-02-07T06:06:22.823Z,32.4
2019-02-07T06:07:13.330Z,31.8
2019-02-07T06:08:04.816Z,31.4
2019-02-07T06:08:56.513Z,31.1
2019-02-07T06:09:44.949Z,30.9
2019-02-07T06:10:33.597Z,30.7
2019-02-07T06:11:24.761Z,30.5
2019-02-07T06:12:17.072Z,30.3
2019-02-07T06:13:04.834Z,30.2
2019-02-07T06:13:54.639Z,30.1
2019-02-07T06:14:45.412Z,29.8
2019-02-07T06:15:34.997Z,29.6
2019-02-07T06:16:24.191Z,29.4
2019-02-07T06:17:14.797Z,29.3
2019-02-07T06:18:05.864Z,29.2
2019-02-07T06:19:11.992Z,28.7
2019-02-07T06:19:45.907Z,29.4
2019-02-07T06:20:35.371Z,30.1
2019-02-07T06:21:28.312Z,30.7
2019-02-07T06:22:15.471Z,31.3
2019-02-07T06:23:04.404Z,31.7
2019-02-07T06:23:55.129Z,32.1
2019-02-07T06:24:45.668Z,32.4
2019-02-07T06:25:35.525Z,32.8
2019-02-07T06:26:25.684Z,33.1
2019-02-07T06:27:17.229Z,33.3
2019-02-07T06:28:06.206Z,33.5
2019-02-07T06:28:57.533Z,33.1
2019-02-07T06:29:46.568Z,32.9
2019-02-07T06:30:38.306Z,32.5
2019-02-07T06:31:25.008Z,31.9
2019-02-07T06:32:16.473Z,31.6
2019-02-07T06:33:05.905Z,31.3
2019-02-07T06:33:57.495Z,31
2019-02-07T06:34:46.230Z,30.8
2019-02-07T06:35:36.408Z,30.6
2019-02-07T06:36:28.128Z,30.4
2019-02-07T06:37:16.786Z,30.3
2019-02-07T06:38:06.318Z,30.1
2019-02-07T06:38:56.924Z,29.8
2019-02-07T06:39:49.303Z,29.6
2019-02-07T06:40:35.490Z,29.4
2019-02-07T06:41:26.855Z,29.3
2019-02-07T06:42:16.993Z,29
2019-02-07T06:43:06.692Z,28.8
2019-02-07T06:43:55.918Z,29.8
2019-02-07T06:44:46.817Z,30.8
2019-02-07T06:45:38.730Z,31.8
2019-02-07T06:46:26.944Z,32.2
2019-02-07T06:47:22.752Z,32.4
2019-02-07T06:48:06.912Z,32.6
2019-02-07T06:48:58.715Z,32.7
2019-02-07T06:49:47.165Z,32.9
2019-02-07T06:50:37.289Z,33.1
2019-02-07T06:51:26.543Z,33.3
2019-02-07T06:52:17.285Z,32.9
2019-02-07T06:53:08.207Z,32.8
2019-02-07T06:53:56.907Z,32.7
2019-02-07T06:54:49.071Z,32.6
2019-02-07T06:55:38.467Z,32.4
2019-02-07T06:56:27.837Z,32.3
2019-02-07T06:57:20.612Z,32.1
2019-02-07T06:58:10.977Z,31.9
2019-02-07T06:59:00.054Z,31.8
2019-02-07T07:01:15.983Z,31.6
2019-02-07T07:01:26.678Z,30.9
2019-02-07T07:02:16.780Z,30.8
2019-02-07T07:03:06.135Z,30.4
2019-02-07T07:04:02.555Z,30
2019-02-07T07:06:24.265Z,29.4
2019-02-07T07:07:15.810Z,28.8
2019-02-07T07:08:03.827Z,29.9
2019-02-07T07:08:54.472Z,30.8
2019-02-07T07:09:44.174Z,31.6
2019-02-07T07:10:33.732Z,31.9
2019-02-07T07:11:24.932Z,32.2
2019-02-07T07:12:14.234Z,32.4
2019-02-07T07:13:06.689Z,32.6
2019-02-07T07:13:54.637Z,32.8
2019-02-07T07:14:44.644Z,33.1
2019-02-07T07:15:33.937Z,33.3
2019-02-07T07:16:27.549Z,33.1
2019-02-07T07:17:26.682Z,32.9
2019-02-07T07:18:04.284Z,32.8
2019-02-07T07:18:54.706Z,32.8
2019-02-07T07:19:45.222Z,32.6
2019-02-07T07:20:34.599Z,32.4
2019-02-07T07:21:24.490Z,32.3
2019-02-07T07:22:16.258Z,32.1
2019-02-07T07:23:05.841Z,31.9
2019-02-07T07:23:55.498Z,31.8
2019-02-07T07:24:45.262Z,31.6
2019-02-07T07:25:37.998Z,31.5
2019-02-07T07:26:25.113Z,30.8
2019-02-07T07:27:14.625Z,30.4
2019-02-07T07:28:05.231Z,30.1
2019-02-07T07:28:55.318Z,29.8
2019-02-07T07:29:45.899Z,29.6
2019-02-07T07:30:35.938Z,29.4
2019-02-07T07:31:26.278Z,29.1
2019-02-07T07:32:18.813Z,28.9
2019-02-07T07:33:05.768Z,30.1
2019-02-07T07:33:54.705Z,31.1
2019-02-07T07:34:46.961Z,31.6
2019-02-07T07:35:35.673Z,31.9
2019-02-07T07:36:25.874Z,32.1
2019-02-07T07:37:15.738Z,32.3
2019-02-07T07:38:06.371Z,32.6
2019-02-07T07:38:55.775Z,32.8
2019-02-07T07:39:45.554Z,33.1
2019-02-07T07:40:36.450Z,33.4
2019-02-07T07:41:26.525Z,33.4
2019-02-07T07:42:16.632Z,33
2019-02-07T07:43:04.975Z,32.9
2019-02-07T07:43:58.743Z,32.8
2019-02-07T07:44:45.370Z,32.6
2019-02-07T07:45:37.075Z,32.4
2019-02-07T07:46:25.447Z,32.3
2019-02-07T07:47:15.560Z,32.1
2019-02-07T07:48:06.066Z,31.9
2019-02-07T07:48:56.660Z,31.8
2019-02-07T07:49:48.818Z,31.6
2019-02-07T07:50:36.680Z,31.4
2019-02-07T07:51:27.705Z,31.3
2019-02-07T07:52:16.947Z,30.8
2019-02-07T07:53:09.369Z,30.3
2019-02-07T07:53:56.634Z,30
2019-02-07T07:54:46.494Z,29.8
2019-02-07T07:55:35.274Z,29.6
2019-02-07T07:56:26.537Z,29.4
2019-02-07T07:57:17.004Z,28.7
2019-02-07T07:58:06.670Z,29.6
2019-02-07T07:58:58.772Z,30.7
2019-02-07T07:59:45.951Z,31.4
2019-02-07T08:00:37.164Z,31.8
2019-02-07T08:01:27.281Z,32.1
2019-02-07T08:02:19.953Z,32.3
2019-02-07T08:03:07.575Z,32.6
2019-02-07T08:03:57.776Z,32.8
2019-02-07T08:04:47.432Z,32
2019-02-07T08:05:37.663Z,31.1
2019-02-07T08:06:27.275Z,29.4
2019-02-07T08:07:16.391Z,28.3
2019-02-07T08:08:10.226Z,26.6
2019-02-07T08:08:57.514Z,24.6
2019-02-07T08:09:48.793Z,24.6
2019-02-07T08:10:38.959Z,24.6
2019-02-07T08:11:30.926Z,26.4
2019-02-07T08:12:17.231Z,28.1
2019-02-07T08:13:08.108Z,29.6
2019-02-07T08:13:57.940Z,30.6
2019-02-07T08:14:48.285Z,31.3
2019-02-07T08:15:37.888Z,31.8
2019-02-07T08:16:30.057Z,32.3
2019-02-07T08:17:21.167Z,32.6
2019-02-07T08:18:08.899Z,32.9
2019-02-07T08:18:57.781Z,33.3
2019-02-07T08:19:48.871Z,33.5
2019-02-07T08:20:43.199Z,33.3
2019-02-07T08:21:29.352Z,33.1
2019-02-07T08:22:19.072Z,32.9
2019-02-07T08:23:08.553Z,32.7
2019-02-07T08:23:59.791Z,32.5
2019-02-07T08:24:48.106Z,32.3
2019-02-07T08:25:39.356Z,32.1
2019-02-07T08:26:31.186Z,31.9
2019-02-07T08:27:19.056Z,31.7
2019-02-07T08:28:10.238Z,31.6
2019-02-07T08:28:58.143Z,31.4
2019-02-07T08:29:51.987Z,31.2
2019-02-07T08:30:46.222Z,30.8
2019-02-07T08:31:29.161Z,30.3
2019-02-07T08:32:19.248Z,30.1
2019-02-07T08:33:10.098Z,29.9
2019-02-07T08:34:00.171Z,29.7
2019-02-07T08:34:48.658Z,29.5
2019-02-07T08:35:41.188Z,28.8
2019-02-07T08:36:29.593Z,29.9
2019-02-07T08:37:20.533Z,30.6
2019-02-07T08:38:09.940Z,31.1
2019-02-07T08:39:01.946Z,31.6
2019-02-07T08:39:49.872Z,32.1
2019-02-07T08:40:40.160Z,32.4
2019-02-07T08:41:30.715Z,32.7
2019-02-07T08:42:19.365Z,33
2019-02-07T08:43:10.250Z,33.3
2019-02-07T08:44:00.713Z,33.5
2019-02-07T08:44:54.873Z,33.7
2019-02-07T08:45:41.144Z,33.2
2019-02-07T08:46:30.506Z,33.1
2019-02-07T08:47:20.730Z,32.9
2019-02-07T08:48:16.382Z,32.8
2019-02-07T08:49:04.326Z,32.6
2019-02-07T08:49:51.667Z,32.4
2019-02-07T08:50:40.945Z,32.3
2019-02-07T08:51:29.531Z,32.1
2019-02-07T08:52:21.048Z,31.9
2019-02-07T08:53:11.078Z,31.8
2019-02-07T08:54:02.074Z,31.6
2019-02-07T08:54:51.096Z,31.4
2019-02-07T08:55:44.034Z,30.9
2019-02-07T08:56:31.046Z,30.5
2019-02-07T08:57:24.684Z,30.2
2019-02-07T08:58:11.561Z,29.9
2019-02-07T08:59:01.129Z,29.7
2019-02-07T08:59:51.902Z,29.6
2019-02-07T09:00:41.522Z,28.9
2019-02-07T09:01:30.907Z,29.5
2019-02-07T09:02:21.367Z,30.6
2019-02-07T09:03:13.884Z,31.5
2019-02-07T09:04:01.885Z,31.9
2019-02-07T09:04:51.011Z,32.2
2019-02-07T09:05:41.851Z,32.4
2019-02-07T09:06:34.616Z,32.7
2019-02-07T09:07:21.533Z,32.9
2019-02-07T09:08:12.502Z,33.2
2019-02-07T09:09:02.531Z,33.4
2019-02-07T09:09:53.200Z,33.4
2019-02-07T09:10:41.363Z,33.1
2019-02-07T09:11:33.633Z,32.9
2019-02-07T09:12:24.041Z,32.8
2019-02-07T09:13:12.912Z,32.7
2019-02-07T09:14:04.055Z,32.6
2019-02-07T09:14:52.948Z,32.4
2019-02-07T09:15:46.445Z,32.3
2019-02-07T09:16:32.610Z,32.1
2019-02-07T09:17:24.821Z,31.9
2019-02-07T09:18:22.545Z,31.7
2019-02-07T09:19:03.094Z,31.5
2019-02-07T09:19:53.035Z,31.4
2019-02-07T09:20:43.183Z,30.9
2019-02-07T09:21:35.317Z,30.4
2019-02-07T09:22:27.108Z,30.1
2019-02-07T09:23:14.124Z,29.8
2019-02-07T09:24:03.349Z,29.7
2019-02-07T09:24:56.427Z,29.5
2019-02-07T09:25:43.985Z,28.8
2019-02-07T09:26:33.892Z,29.6
2019-02-07T09:27:23.706Z,30.8
2019-02-07T09:28:13.155Z,31.6
2019-02-07T09:29:04.240Z,31.9
2019-02-07T09:29:53.210Z,32.2
2019-02-07T09:30:45.639Z,32.4
2019-02-07T09:31:33.444Z,32.7
2019-02-07T09:32:23.982Z,32.9
2019-02-07T09:33:14.487Z,33.2
2019-02-07T09:34:07.003Z,33.4
2019-02-07T09:34:54.719Z,33.3
2019-02-07T09:35:44.594Z,33.1
2019-02-07T09:36:33.717Z,32.9
2019-02-07T09:37:24.546Z,32.7
2019-02-07T09:38:14.444Z,32.5
2019-02-07T09:39:04.681Z,32.3
2019-02-07T09:39:55.734Z,32
2019-02-07T09:40:44.004Z,31.8
2019-02-07T09:41:34.576Z,31.5
2019-02-07T09:42:24.056Z,31.3
2019-02-07T09:43:17.679Z,31
2019-02-07T09:44:05.587Z,30.8
2019-02-07T09:44:55.254Z,30.6
2019-02-07T09:45:45.143Z,30.2
2019-02-07T09:46:34.928Z,29.9
2019-02-07T09:47:25.248Z,29.6
2019-02-07T09:48:25.875Z,29.4
2019-02-07T09:49:09.910Z,28.9
2019-02-07T09:49:55.498Z,28.8
2019-02-07T09:50:45.449Z,29.8
2019-02-07T09:51:35.448Z,30.9
2019-02-07T09:52:28.004Z,31.4
2019-02-07T09:53:27.465Z,31.8
2019-02-07T09:54:06.158Z,32.1
2019-02-07T09:54:55.856Z,32.4
2019-02-07T09:55:46.490Z,32.6
2019-02-07T09:56:35.634Z,32.9
2019-02-07T09:57:26.278Z,33.2
2019-02-07T09:58:18.740Z,33.4
2019-02-07T09:59:09.083Z,33.6
2019-02-07T09:59:55.902Z,33.2
2019-02-07T10:00:46.181Z,33.1
2019-02-07T10:01:38.233Z,32.9
2019-02-07T10:02:25.782Z,32.7
2019-02-07T10:03:16.163Z,32.5
2019-02-07T10:04:07.537Z,32.3
2019-02-07T10:04:56.641Z,32.1
2019-02-07T10:07:26.620Z,31.6
2019-02-07T10:08:13.365Z,31.3
2019-02-07T10:09:03.767Z,31.2
2019-02-07T10:09:53.860Z,30.6
2019-02-07T10:10:45.667Z,30.3
2019-02-07T10:11:34.362Z,30
2019-02-07T10:12:23.649Z,29.8
2019-02-07T10:13:15.632Z,29.6
2019-02-07T10:14:04.369Z,29.1
2019-02-07T10:14:54.178Z,29.3
2019-02-07T10:15:45.139Z,30.4
2019-02-07T10:16:38.392Z,31.1
2019-02-07T10:17:22.929Z,31.5
2019-02-07T10:18:14.516Z,31.8
2019-02-07T10:19:04.439Z,32.2
2019-02-07T10:19:55.116Z,32.3
2019-02-07T10:20:47.603Z,32
2019-02-07T10:21:33.784Z,31.6
2019-02-07T10:22:26.609Z,31.1
2019-02-07T10:23:14.210Z,30.4
2019-02-07T10:24:05.571Z,29.8
2019-02-07T10:24:55.107Z,29.4
2019-02-07T10:25:51.095Z,29.1
2019-02-07T10:26:35.455Z,28.8
2019-02-07T10:27:25.286Z,28.6
2019-02-07T10:28:15.636Z,28.4
2019-02-07T10:29:05.006Z,28.3
2019-02-07T10:29:54.576Z,28.1
2019-02-07T10:30:44.325Z,28
2019-02-07T10:31:37.091Z,27.9
2019-02-07T10:32:25.730Z,27.8
2019-02-07T10:33:15.495Z,27.7
2019-02-07T10:34:06.888Z,27.6
2019-02-07T10:34:58.458Z,27.4
2019-02-07T10:35:46.115Z,27.3
2019-02-07T10:36:36.138Z,27.3
2019-02-07T10:37:26.300Z,27.2
2019-02-07T10:38:15.517Z,27.1
2019-02-07T10:39:06.341Z,26.9
2019-02-07T10:39:56.982Z,26.9
2019-02-07T10:40:47.371Z,26.8
2019-02-07T10:41:39.493Z,26.7
2019-02-07T10:42:26.388Z,26.6
2019-02-07T10:43:16.350Z,26.5
2019-02-07T10:44:08.650Z,26.4
2019-02-07T10:44:56.278Z,26.3
2019-02-07T10:45:46.934Z,26.2
2019-02-07T10:46:36.943Z,26.1
2019-02-07T10:47:25.922Z,26
2019-02-07T10:48:17.355Z,25.9
2019-02-07T10:49:07.195Z,25.8
2019-02-07T10:50:09.050Z,25.7
2019-02-07T10:50:47.083Z,25.6
2019-02-07T10:51:36.587Z,25.5
2019-02-07T10:52:25.197Z,25.4
2019-02-07T10:53:19.951Z,25.3
2019-02-07T10:54:06.692Z,25.2
2019-02-07T10:54:57.289Z,25.1
2019-02-07T10:55:46.082Z,24.9
2019-02-07T10:56:37.091Z,24.9
2019-02-07T10:57:27.558Z,24.8
2019-02-07T10:58:17.468Z,24.7
2019-02-07T10:59:09.369Z,24.6
2019-02-07T10:59:57.576Z,24.4
2019-02-07T11:00:47.906Z,24.4
2019-02-07T11:01:38.269Z,24.3
2019-02-07T11:02:30.126Z,24.2
2019-02-07T11:03:16.963Z,24.1
2019-02-07T11:04:08.768Z,24
2019-02-07T11:04:57.931Z,23.9
2019-02-07T11:05:47.195Z,23.9
2019-02-07T11:06:38.073Z,23.8
2019-02-07T11:07:28.193Z,23.7
2019-02-07T11:08:19.618Z,23.6
2019-02-07T11:09:07.784Z,23.6
2019-02-07T11:09:58.296Z,23.5
2019-02-07T11:10:47.468Z,23.4
2019-02-07T11:11:41.368Z,23.3
2019-02-07T11:12:28.198Z,23.3
2019-02-07T11:13:19.074Z,23.2
2019-02-07T11:14:07.870Z,23.1
2019-02-07T11:14:57.880Z,23.1
2019-02-07T11:15:48.082Z,23
2019-02-07T11:16:38.515Z,22.9
2019-02-07T11:17:30.188Z,22.9